Time;durP1;ratioP1;P1;durP2;ratioP2;P2;SDS_P1;SDS_P2;PMS_P1;PMS_P2;Temp;Humidity;BMP_temperature;BMP_pressure;BME280_temperature;BME280_humidity;BME280_pressure;Samples;Min_cycle;Max_cycle;Signal;HPM_P1;HPM_P2
2023/04/20 07:39:18;;;;;;;2.57;2.23;;;;;;;6.37;100.00;95928.91;5055686;27;20606;-69
2023/04/20 07:41:44;;;;;;;4.20;1.97;;;;;;;6.10;100.00;95918.69;5053411;28;20200;-68
2023/04/20 07:44:12;;;;;;;2.07;1.87;;;;;;;6.04;100.00;95918.50;5051281;28;20231;-69
2023/04/20 07:46:39;;;;;;;1.33;1.23;;;;;;;5.99;100.00;95920.75;5054005;28;20224;-71
2023/04/20 07:49:05;;;;;;;2.77;1.37;;;;;;;5.73;100.00;95925.97;5053196;28;20215;-68
2023/04/20 07:51:33;;;;;;;2.67;0.90;;;;;;;5.91;100.00;95921.53;5053570;28;20204;-70
2023/04/20 07:53:59;;;;;;;0.70;0.70;;;;;;;5.75;100.00;95929.28;5054626;28;20297;-68
2023/04/20 07:56:27;;;;;;;1.10;1.00;;;;;;;5.70;100.00;95925.47;5053909;28;20568;-68
2023/04/20 07:58:53;;;;;;;0.80;0.80;;;;;;;5.61;100.00;95932.47;5052443;28;20723;-68
2023/04/20 08:01:23;;;;;;;1.67;1.17;;;;;;;5.81;100.00;95928.66;5053374;28;20205;-68
2023/04/20 08:03:50;;;;;;;1.73;1.33;;;;;;;5.89;100.00;95930.50;5053663;28;20220;-69
2023/04/20 08:06:16;;;;;;;1.40;1.30;;;;;;;5.54;100.00;95933.22;5053586;28;20228;-68
2023/04/20 08:08:42;;;;;;;2.23;1.17;;;;;;;5.52;100.00;95936.00;5052754;28;20197;-68
2023/04/20 08:11:09;;;;;;;0.93;0.93;;;;;;;5.69;100.00;95935.13;5052878;28;20212;-69
2023/04/20 08:13:37;;;;;;;6.23;1.43;;;;;;;5.62;100.00;95928.84;5052897;28;20227;-69
2023/04/20 08:16:03;;;;;;;1.97;1.40;;;;;;;5.51;100.00;95931.72;5052776;28;20212;-68
2023/04/20 08:18:30;;;;;;;5.97;2.63;;;;;;;5.79;100.00;95924.56;5052778;28;20229;-69
2023/04/20 08:20:56;;;;;;;2.20;0.87;;;;;;;5.83;100.00;95926.72;5053240;28;20676;-68
2023/04/20 08:23:26;;;;;;;1.93;1.70;;;;;;;6.06;100.00;95930.44;5052790;28;20231;-69
2023/04/20 08:25:53;;;;;;;1.93;1.40;;;;;;;6.13;100.00;95919.16;5053329;28;20254;-70
2023/04/20 08:28:19;;;;;;;5.13;2.03;;;;;;;5.90;100.00;95917.28;5051818;28;20212;-68
2023/04/20 08:30:47;;;;;;;1.53;1.43;;;;;;;6.10;100.00;95910.84;5052474;28;20650;-68
2023/04/20 08:33:14;;;;;;;1.03;1.00;;;;;;;6.22;100.00;95907.78;5053027;28;20295;-69
2023/04/20 08:35:40;;;;;;;1.63;1.43;;;;;;;6.23;100.00;95917.25;5053035;28;20251;-68
2023/04/20 08:38:07;;;;;;;0.87;0.87;;;;;;;6.34;100.00;95916.97;5051803;28;20235;-68
2023/04/20 08:40:35;;;;;;;0.97;0.97;;;;;;;6.36;100.00;95920.22;5052672;28;21066;-68
2023/04/20 08:43:02;;;;;;;1.00;1.00;;;;;;;6.32;100.00;95916.28;5052382;28;20216;-71
2023/04/20 08:45:29;;;;;;;1.20;1.20;;;;;;;6.56;100.00;95913.75;5052941;28;20205;-67
2023/04/20 08:47:58;;;;;;;2.03;1.03;;;;;;;6.58;100.00;95914.41;5051783;28;20208;-70
2023/04/20 08:50:24;;;;;;;1.00;0.90;;;;;;;6.41;100.00;95907.47;5040599;28;20635;-70
2023/04/20 08:52:51;;;;;;;1.87;1.37;;;;;;;6.44;100.00;95907.19;5039922;28;20242;-69
2023/04/20 08:55:18;;;;;;;1.97;1.10;;;;;;;6.62;100.00;95904.41;5038648;28;20209;-70
2023/04/20 08:57:45;;;;;;;1.27;1.27;;;;;;;6.51;100.00;95902.94;5038214;28;20221;-70
2023/04/20 09:00:12;;;;;;;1.73;1.33;;;;;;;6.54;100.00;95902.59;5039179;28;20212;-70
2023/04/20 09:02:48;;;;;;;0.87;0.87;;;;;;;6.67;100.00;95903.78;5039141;28;20231;-70
2023/04/20 09:05:24;;;;;;;1.17;0.97;;;;;;;6.84;100.00;95894.16;5039369;28;20219;-70
2023/04/20 09:07:52;;;;;;;0.83;0.83;;;;;;;6.88;100.00;95895.47;5038089;28;20197;-70
2023/04/20 09:10:18;;;;;;;1.00;0.73;;;;;;;6.84;100.00;95894.16;5039174;28;20294;-70
2023/04/20 09:12:45;;;;;;;0.80;0.77;;;;;;;7.18;100.00;95886.94;5038886;28;20224;-70
2023/04/20 09:15:23;;;;;;;0.80;0.77;;;;;;;7.09;100.00;95880.06;5039036;28;20216;-70
2023/04/20 09:17:50;;;;;;;4.20;1.50;;;;;;;7.11;100.00;95875.50;5038353;28;20641;-69
2023/04/20 09:20:27;;;;;;;1.20;1.10;;;;;;;6.98;100.00;95878.59;5038392;28;20700;-69
2023/04/20 09:22:54;;;;;;;0.83;0.80;;;;;;;6.97;100.00;95878.75;5038993;28;20228;-69
2023/04/20 09:25:20;;;;;;;1.47;1.33;;;;;;;7.03;100.00;95878.13;5038245;28;21164;-69
2023/04/20 09:27:55;;;;;;;1.43;1.33;;;;;;;7.09;100.00;95882.69;5038756;28;20574;-69
2023/04/20 09:30:22;;;;;;;0.40;0.40;;;;;;;6.95;100.00;95891.19;5038607;28;20205;-69
2023/04/20 09:32:48;;;;;;;0.37;0.33;;;;;;;7.05;100.00;95890.06;5038666;28;20225;-69
2023/04/20 09:35:23;;;;;;;0.63;0.63;;;;;;;7.24;100.00;95876.59;5038554;28;20205;-69
2023/04/20 09:37:50;;;;;;;0.47;0.47;;;;;;;7.43;100.00;95860.53;5037591;28;20228;-69
2023/04/20 09:40:18;;;;;;;0.47;0.47;;;;;;;7.39;100.00;95860.03;5037613;28;20201;-69
2023/04/20 09:42:45;;;;;;;0.33;0.33;;;;;;;7.26;100.00;95854.50;5038069;28;20216;-69
2023/04/20 09:45:15;;;;;;;0.83;0.83;;;;;;;7.16;100.00;95842.56;5038178;28;20216;-70
2023/04/20 09:47:43;;;;;;;0.53;0.53;;;;;;;7.23;100.00;95837.47;5037731;28;20212;-69
2023/04/20 09:50:11;;;;;;;0.63;0.63;;;;;;;7.47;100.00;95825.97;5037798;28;20368;-69
2023/04/20 09:52:39;;;;;;;0.70;0.50;;;;;;;7.51;100.00;95810.69;5037546;28;20256;-69
2023/04/20 09:55:07;;;;;;;0.77;0.60;;;;;;;7.68;100.00;95802.63;5037731;28;20692;-69
2023/04/20 09:57:35;;;;;;;0.40;0.40;;;;;;;7.67;100.00;95806.22;5037419;28;20208;-69
2023/04/20 10:00:04;;;;;;;1.90;1.00;;;;;;;7.59;100.00;95819.38;5037382;28;20220;-69
2023/04/20 10:02:31;;;;;;;1.23;0.83;;;;;;;7.52;100.00;95814.97;5037224;28;20205;-69
2023/04/20 10:04:58;;;;;;;0.73;0.73;;;;;;;7.22;100.00;95814.88;5038274;28;20201;-70
2023/04/20 10:07:26;;;;;;;4.00;0.83;;;;;;;7.30;100.00;95823.53;5036420;28;20288;-69
2023/04/20 10:10:05;;;;;;;1.13;1.13;;;;;;;7.46;100.00;95845.31;5037720;28;20616;-68
2023/04/20 10:12:31;;;;;;;0.77;0.77;;;;;;;7.49;100.00;95847.56;5037887;28;20238;-69
2023/04/20 10:14:59;;;;;;;1.53;1.17;;;;;;;7.55;100.00;95849.53;5037906;28;20823;-69
2023/04/20 10:17:29;;;;;;;1.87;1.23;;;;;;;7.73;100.00;95846.72;5036831;28;20235;-70
2023/04/20 10:19:56;;;;;;;0.40;0.40;;;;;;;7.52;100.00;95842.03;5038492;28;20975;-70
2023/04/20 10:22:31;;;;;;;1.03;0.70;;;;;;;7.58;100.00;95841.31;5037235;28;20204;-70
2023/04/20 10:24:58;;;;;;;0.50;0.50;;;;;;;7.64;100.00;95852.97;5037375;28;20204;-68
2023/04/20 10:27:26;;;;;;;0.37;0.37;;;;;;;7.47;100.00;95852.19;5037303;28;20212;-69
2023/04/20 10:29:53;;;;;;;0.70;0.70;;;;;;;7.42;100.00;95854.50;5037176;28;20213;-69
2023/04/20 10:32:23;;;;;;;1.03;0.80;;;;;;;7.46;100.00;95855.78;5037077;28;20216;-68
2023/04/20 10:35:01;;;;;;;0.90;0.77;;;;;;;7.49;100.00;95859.88;5037345;28;20221;-69
2023/04/20 10:37:27;;;;;;;1.27;1.17;;;;;;;7.22;100.00;95859.41;5036629;28;20745;-68
2023/04/20 10:39:54;;;;;;;1.17;1.07;;;;;;;7.19;100.00;95851.91;5036799;28;20221;-69
2023/04/20 10:42:20;;;;;;;1.47;1.37;;;;;;;7.21;100.00;95855.19;5037155;28;20197;-68
2023/04/20 10:44:48;;;;;;;0.70;0.70;;;;;;;7.19;100.00;95857.13;5037569;28;20243;-68
2023/04/20 10:47:15;;;;;;;1.17;1.07;;;;;;;7.17;100.00;95856.50;5036770;28;20213;-69
2023/04/20 10:49:42;;;;;;;1.13;1.03;;;;;;;7.24;100.00;95860.88;5037179;28;20288;-69
2023/04/20 10:52:08;;;;;;;2.20;1.40;;;;;;;7.04;100.00;95858.78;5037146;28;20232;-69
2023/04/20 10:54:37;;;;;;;1.47;0.70;;;;;;;7.22;100.00;95862.03;5037193;28;20219;-69
2023/04/20 10:57:05;;;;;;;0.73;0.73;;;;;;;7.07;100.00;95848.00;5036554;28;20291;-69
2023/04/20 10:59:33;;;;;;;1.20;0.87;;;;;;;7.08;100.00;95844.41;5036482;28;20253;-69
2023/04/20 11:02:01;;;;;;;1.63;1.33;;;;;;;7.05;100.00;95842.09;5037270;28;20294;-68
2023/04/20 11:04:31;;;;;;;0.60;0.60;;;;;;;7.24;100.00;95845.16;5036663;28;20225;-68
2023/04/20 11:07:05;;;;;;;0.77;0.77;;;;;;;7.26;100.00;95838.78;5036872;28;20224;-69
2023/04/20 11:09:33;;;;;;;0.80;0.80;;;;;;;7.08;100.00;95842.59;5036492;28;20202;-68
2023/04/20 11:12:00;;;;;;;5.40;1.70;;;;;;;7.05;100.00;95839.47;5036330;28;20205;-68
2023/04/20 11:14:28;;;;;;;0.57;0.57;;;;;;;7.05;100.00;95836.84;5036535;28;20236;-69
2023/04/20 11:16:55;;;;;;;0.80;0.80;;;;;;;7.04;100.00;95832.59;5036446;28;20212;-69
2023/04/20 11:19:28;;;;;;;2.63;0.97;;;;;;;7.08;100.00;95828.69;5035607;28;20236;-68
2023/04/20 11:21:54;;;;;;;1.47;1.37;;;;;;;7.08;100.00;95813.75;5036219;28;20205;-69
2023/04/20 11:24:22;;;;;;;0.70;0.70;;;;;;;7.02;100.00;95824.09;5036947;28;20224;-68
2023/04/20 11:26:49;;;;;;;0.37;0.37;;;;;;;7.19;100.00;95816.03;5036653;28;20201;-70
2023/04/20 11:29:30;;;;;;;0.60;0.60;;;;;;;7.15;100.00;95799.00;5035303;28;20673;-68
2023/04/20 11:31:57;;;;;;;1.40;0.90;;;;;;;7.12;100.00;95806.41;5037201;28;20216;-69
2023/04/20 11:34:24;;;;;;;0.67;0.67;;;;;;;6.95;100.00;95807.38;5037008;28;20582;-68
2023/04/20 11:36:55;;;;;;;0.50;0.50;;;;;;;6.99;100.00;95806.09;5035625;28;20304;-68
2023/04/20 11:39:24;;;;;;;1.17;1.07;;;;;;;7.19;100.00;95800.31;5035077;28;20620;-69
2023/04/20 11:41:51;;;;;;;1.27;0.60;;;;;;;7.07;100.00;95806.06;5036092;28;20255;-69
2023/04/20 11:44:19;;;;;;;1.17;0.70;;;;;;;7.14;100.00;95812.28;5035884;28;20980;-69
2023/04/20 11:46:47;;;;;;;0.60;0.60;;;;;;;7.03;100.00;95813.44;5035601;28;20663;-69
2023/04/20 11:49:14;;;;;;;1.13;1.00;;;;;;;7.12;100.00;95811.63;5035320;28;20212;-69
2023/04/20 11:51:40;;;;;;;0.30;0.30;;;;;;;7.12;100.00;95822.94;5035473;28;20208;-69
2023/04/20 11:54:08;;;;;;;0.40;0.40;;;;;;;7.18;100.00;95818.81;5036349;28;20224;-69
2023/04/20 11:56:36;;;;;;;0.70;0.70;;;;;;;6.91;100.00;95833.09;5036428;28;20225;-69
2023/04/20 11:59:02;;;;;;;1.10;1.00;;;;;;;6.88;100.00;95828.19;5035233;28;20323;-69
2023/04/20 12:01:29;;;;;;;0.73;0.70;;;;;;;7.13;100.00;95821.09;5035373;28;20201;-69
2023/04/20 12:03:55;;;;;;;0.60;0.60;;;;;;;7.08;100.00;95826.06;5036039;28;20221;-69
2023/04/20 12:06:22;;;;;;;2.13;1.03;;;;;;;7.11;100.00;95825.72;5035602;28;21021;-69
2023/04/20 12:08:48;;;;;;;0.60;0.60;;;;;;;7.19;100.00;95815.22;5035033;28;20579;-68
2023/04/20 12:11:16;;;;;;;0.70;0.70;;;;;;;7.14;100.00;95814.91;5035260;28;20240;-69
2023/04/20 12:13:42;;;;;;;0.53;0.53;;;;;;;7.12;100.00;95822.13;5035808;28;20267;-69
2023/04/20 12:16:09;;;;;;;0.40;0.40;;;;;;;6.85;100.00;95827.72;5035568;28;20205;-69
2023/04/20 12:18:35;;;;;;;0.97;0.90;;;;;;;6.81;100.00;95831.59;5034966;28;20197;-69
2023/04/20 12:21:02;;;;;;;0.70;0.70;;;;;;;6.89;100.00;95819.34;5035535;28;20205;-69
2023/04/20 12:23:28;;;;;;;1.37;1.27;;;;;;;6.84;100.00;95823.44;5035270;28;20228;-69
2023/04/20 12:25:55;;;;;;;0.40;0.40;;;;;;;6.82;100.00;95820.16;5038703;28;20228;-69
2023/04/20 12:28:22;;;;;;;0.50;0.50;;;;;;;7.14;100.00;95822.75;5039143;28;20197;-69
2023/04/20 12:30:49;;;;;;;0.77;0.77;;;;;;;7.09;100.00;95809.34;5038915;28;20197;-69
2023/04/20 12:33:15;;;;;;;1.80;1.00;;;;;;;7.16;100.00;95808.50;5038951;28;20225;-69
2023/04/20 12:35:43;;;;;;;1.13;1.03;;;;;;;7.32;100.00;95811.91;5039593;28;20508;-70
2023/04/20 12:38:10;;;;;;;0.53;0.53;;;;;;;7.27;100.00;95819.44;5038036;28;20574;-69
2023/04/20 12:40:36;;;;;;;0.87;0.70;;;;;;;7.24;100.00;95826.81;5038026;28;20481;-69
2023/04/20 12:43:03;;;;;;;0.47;0.47;;;;;;;6.92;100.00;95829.47;5039550;28;20775;-70
2023/04/20 12:45:31;;;;;;;0.70;0.70;;;;;;;6.96;100.00;95824.75;5039627;28;20869;-71
2023/04/20 12:47:58;;;;;;;7.07;1.30;;;;;;;6.97;100.00;95821.16;5038049;28;20204;-70
2023/04/20 12:50:24;;;;;;;1.30;1.10;;;;;;;7.01;100.00;95815.41;5039049;28;20205;-71
2023/04/20 12:52:51;;;;;;;0.90;0.90;;;;;;;7.05;100.00;95811.50;5039953;28;20245;-71
2023/04/20 12:55:18;;;;;;;2.97;0.97;;;;;;;7.07;100.00;95814.75;5038697;28;20212;-71
2023/04/20 12:57:45;;;;;;;1.63;1.53;;;;;;;7.15;100.00;95804.25;5038417;28;20225;-71
2023/04/20 13:00:12;;;;;;;2.63;1.93;;;;;;;6.89;100.00;95806.25;5038980;28;20229;-71
2023/04/20 13:02:40;;;;;;;1.93;1.27;;;;;;;7.18;100.00;95800.47;5039301;28;20307;-71
2023/04/20 13:05:07;;;;;;;2.27;1.50;;;;;;;7.26;100.00;95790.00;5038458;28;20209;-72
2023/04/20 13:07:33;;;;;;;3.13;1.63;;;;;;;7.31;100.00;95794.53;5038275;28;21188;-72
2023/04/20 13:10:00;;;;;;;1.13;0.80;;;;;;;7.30;100.00;95799.97;5038855;28;20198;-72
2023/04/20 13:12:27;;;;;;;0.90;0.90;;;;;;;7.20;100.00;95801.13;5038889;28;20212;-71
2023/04/20 13:14:53;;;;;;;1.33;1.23;;;;;;;7.17;100.00;95798.84;5039512;28;20212;-71
2023/04/20 13:17:20;;;;;;;0.63;0.63;;;;;;;7.19;100.00;95799.50;5038053;28;20237;-72
2023/04/20 13:19:49;;;;;;;0.60;0.60;;;;;;;7.32;100.00;95790.94;5038435;28;20221;-72
2023/04/20 13:22:16;;;;;;;1.37;1.07;;;;;;;7.17;100.00;95804.09;5038641;28;20240;-71
2023/04/20 13:24:43;;;;;;;0.60;0.60;;;;;;;7.14;100.00;95796.56;5039192;28;20197;-70
2023/04/20 13:27:10;;;;;;;2.20;1.03;;;;;;;7.23;100.00;95800.78;5038822;28;20205;-71
2023/04/20 13:29:37;;;;;;;1.33;1.23;;;;;;;7.39;100.00;95801.56;5038435;28;20201;-72
2023/04/20 13:32:04;;;;;;;1.47;1.37;;;;;;;7.46;100.00;95798.13;5038557;28;20647;-72
2023/04/20 13:34:30;;;;;;;0.50;0.50;;;;;;;7.35;100.00;95795.84;5038131;28;20221;-72
2023/04/20 13:36:58;;;;;;;1.33;1.23;;;;;;;7.42;100.00;95796.81;5038376;28;20292;-71
2023/04/20 13:39:26;;;;;;;0.90;0.87;;;;;;;7.41;100.00;95800.41;5037605;28;20705;-74
2023/04/20 13:41:53;;;;;;;1.03;0.70;;;;;;;7.39;100.00;95794.53;5037858;28;20211;-72
2023/04/20 13:44:19;;;;;;;1.63;1.53;;;;;;;7.56;100.00;95793.50;5037645;28;20225;-72
2023/04/20 13:46:47;;;;;;;0.63;0.63;;;;;;;7.60;100.00;95789.56;5038967;28;20605;-70
2023/04/20 13:49:15;;;;;;;1.77;1.67;;;;;;;7.72;100.00;95788.19;5037673;28;20209;-73
2023/04/20 13:51:42;;;;;;;0.73;0.73;;;;;;;7.47;100.00;95793.69;5037900;28;20205;-72
2023/04/20 13:54:10;;;;;;;1.00;0.90;;;;;;;7.51;100.00;95789.72;5038071;28;20236;-72
2023/04/20 13:56:36;;;;;;;1.57;1.47;;;;;;;7.52;100.00;95786.13;5039311;28;20212;-72
2023/04/20 13:59:03;;;;;;;1.60;1.50;;;;;;;7.58;100.00;95790.69;5037283;28;20889;-72
2023/04/20 14:01:30;;;;;;;0.70;0.70;;;;;;;7.58;100.00;95783.66;5037312;28;20620;-72
2023/04/20 14:03:57;;;;;;;0.60;0.60;;;;;;;7.53;100.00;95793.00;5038343;28;20229;-72
2023/04/20 14:06:23;;;;;;;0.63;0.63;;;;;;;7.59;100.00;95792.34;5038145;28;20668;-72
2023/04/20 14:08:50;;;;;;;1.30;1.20;;;;;;;7.47;100.00;95784.03;5036514;28;20201;-72
2023/04/20 14:11:17;;;;;;;1.43;1.33;;;;;;;7.58;100.00;95788.88;5038006;28;20205;-72
2023/04/20 14:13:44;;;;;;;1.47;1.00;;;;;;;7.49;100.00;95784.66;5037877;28;20236;-72
2023/04/20 14:16:13;;;;;;;0.87;0.83;;;;;;;7.46;100.00;95777.16;5037357;28;20201;-72
2023/04/20 14:18:39;;;;;;;0.93;0.67;;;;;;;7.47;100.00;95777.94;5037181;28;20221;-72
2023/04/20 14:21:06;;;;;;;1.90;1.17;;;;;;;7.30;100.00;95776.38;5037622;28;20232;-72
2023/04/20 14:23:33;;;;;;;0.97;0.97;;;;;;;7.37;100.00;95783.41;5037464;28;20240;-72
2023/04/20 14:25:59;;;;;;;0.97;0.93;;;;;;;7.61;100.00;95780.72;5037501;28;20688;-72
2023/04/20 14:28:27;;;;;;;0.97;0.80;;;;;;;7.71;100.00;95789.16;5037085;28;20201;-72
2023/04/20 14:30:53;;;;;;;1.43;1.07;;;;;;;7.71;100.00;95789.16;5036845;28;20413;-72
2023/04/20 14:33:20;;;;;;;0.93;0.70;;;;;;;7.84;100.00;95796.50;5037036;28;20224;-72
2023/04/20 14:35:47;;;;;;;2.47;1.20;;;;;;;7.80;100.00;95798.63;5037542;28;21177;-72
2023/04/20 14:38:13;;;;;;;1.70;1.27;;;;;;;7.60;100.00;95800.03;5036663;28;20947;-72
2023/04/20 14:40:40;;;;;;;1.27;1.17;;;;;;;7.72;100.00;95798.66;5037130;28;20239;-72
2023/04/20 14:43:06;;;;;;;0.70;0.70;;;;;;;7.75;100.00;95802.75;5036931;28;20236;-72
2023/04/20 14:45:34;;;;;;;2.13;1.40;;;;;;;7.77;100.00;95812.09;5037214;28;20202;-72
2023/04/20 14:48:01;;;;;;;1.40;1.10;;;;;;;7.83;100.00;95816.66;5036420;28;20673;-72
2023/04/20 14:50:27;;;;;;;1.47;1.37;;;;;;;7.83;100.00;95816.66;5037020;28;20280;-72
2023/04/20 14:52:54;;;;;;;1.20;1.10;;;;;;;7.86;100.00;95818.94;5036776;28;20217;-72
2023/04/20 14:55:23;;;;;;;1.33;1.23;;;;;;;8.03;100.00;95817.88;5037223;28;20208;-72
2023/04/20 14:57:50;;;;;;;1.40;1.30;;;;;;;8.07;100.00;95821.78;5036605;28;20647;-72
2023/04/20 15:00:18;;;;;;;2.23;1.67;;;;;;;8.10;100.00;95819.63;5036986;28;20232;-72
2023/04/20 15:02:45;;;;;;;1.13;0.90;;;;;;;8.08;100.00;95826.88;5036798;28;20225;-72
2023/04/20 15:05:12;;;;;;;1.97;1.63;;;;;;;8.04;100.00;95816.88;5036306;28;20213;-72
2023/04/20 15:07:38;;;;;;;0.60;0.60;;;;;;;8.03;100.00;95816.06;5036517;28;20208;-71
2023/04/20 15:10:05;;;;;;;1.10;1.00;;;;;;;7.99;100.00;95816.56;5037372;28;20201;-71
2023/04/20 15:12:32;;;;;;;1.37;1.27;;;;;;;8.00;100.00;95812.97;5036385;28;20216;-72
2023/04/20 15:14:58;;;;;;;1.20;1.03;;;;;;;7.97;100.00;95821.19;5036893;28;20205;-71
2023/04/20 15:17:24;;;;;;;2.00;1.57;;;;;;;8.04;100.00;95827.38;5036242;28;20205;-72
2023/04/20 15:19:52;;;;;;;2.63;2.43;;;;;;;7.94;100.00;95821.53;5036877;28;20221;-72
2023/04/20 15:22:19;;;;;;;1.13;1.10;;;;;;;7.80;100.00;95816.19;5036479;28;20205;-72
2023/04/20 15:24:45;;;;;;;1.90;1.73;;;;;;;7.87;100.00;95818.75;5036347;28;20426;-72
2023/04/20 15:27:12;;;;;;;0.80;0.80;;;;;;;7.83;100.00;95816.66;5036142;28;20231;-72
2023/04/20 15:29:38;;;;;;;1.30;1.00;;;;;;;7.87;100.00;95815.34;5036275;28;20205;-72
2023/04/20 15:32:05;;;;;;;0.97;0.97;;;;;;;7.71;100.00;95811.97;5036514;28;20231;-72
2023/04/20 15:34:31;;;;;;;1.63;1.40;;;;;;;7.75;100.00;95803.59;5035908;28;20216;-72
2023/04/20 15:36:59;;;;;;;0.80;0.80;;;;;;;7.93;100.00;95812.84;5036030;28;20212;-71
2023/04/20 15:39:26;;;;;;;0.90;0.90;;;;;;;7.86;100.00;95817.13;5035951;28;20201;-72
2023/04/20 15:41:52;;;;;;;1.90;1.80;;;;;;;7.75;100.00;95811.47;5036238;28;20796;-72
2023/04/20 15:44:19;;;;;;;0.90;0.90;;;;;;;7.94;100.00;95811.88;5034765;28;20221;-72
2023/04/20 15:46:45;;;;;;;1.70;1.60;;;;;;;7.68;100.00;95818.34;5036554;28;20201;-72
2023/04/20 15:49:12;;;;;;;1.50;1.37;;;;;;;7.94;100.00;95818.91;5036085;28;20575;-72
2023/04/20 15:51:38;;;;;;;3.93;1.50;;;;;;;7.75;100.00;95814.09;5036205;28;20190;-72
2023/04/20 15:54:06;;;;;;;1.50;1.40;;;;;;;7.86;100.00;95816.31;5035757;28;20283;-72
2023/04/20 15:56:32;;;;;;;1.10;0.93;;;;;;;7.82;100.00;95801.09;5036509;28;20209;-70
2023/04/20 15:58:59;;;;;;;3.90;2.47;;;;;;;7.71;100.00;95786.53;5036206;28;20243;-72
2023/04/20 16:01:25;;;;;;;1.07;1.07;;;;;;;7.72;100.00;95788.19;5039930;28;20232;-70
2023/04/20 16:03:52;;;;;;;0.50;0.50;;;;;;;7.65;100.00;95776.75;5040185;28;20225;-71
2023/04/20 16:06:18;;;;;;;2.50;1.73;;;;;;;7.60;100.00;95786.94;5039935;28;20211;-71
2023/04/20 16:08:48;;;;;;;1.80;1.00;;;;;;;7.74;100.00;95788.84;5039928;28;20212;-71
2023/04/20 16:11:16;;;;;;;2.20;1.67;;;;;;;7.73;100.00;95792.44;5040124;28;20287;-70
2023/04/20 16:13:42;;;;;;;1.37;1.27;;;;;;;7.66;100.00;95796.75;5039999;28;20225;-71
2023/04/20 16:16:08;;;;;;;1.90;1.07;;;;;;;7.79;100.00;95789.16;5039403;28;20608;-72
2023/04/20 16:18:35;;;;;;;1.00;0.90;;;;;;;7.69;100.00;95793.78;5039483;28;20212;-71
2023/04/20 16:21:01;;;;;;;0.80;0.80;;;;;;;7.82;100.00;95799.28;5039857;28;20232;-71
2023/04/20 16:23:28;;;;;;;2.33;2.13;;;;;;;7.72;100.00;95803.91;5040053;28;20228;-71
2023/04/20 16:25:54;;;;;;;1.80;1.70;;;;;;;7.91;100.00;95803.50;5039490;28;20216;-71
2023/04/20 16:28:22;;;;;;;1.03;0.80;;;;;;;7.90;100.00;95805.31;5037909;28;20212;-69
2023/04/20 16:30:49;;;;;;;2.20;1.63;;;;;;;7.92;100.00;95800.72;5035448;28;20204;-71
2023/04/20 16:33:15;;;;;;;0.80;0.60;;;;;;;7.89;100.00;95781.88;5038896;28;20235;-69
2023/04/20 16:35:42;;;;;;;1.27;1.00;;;;;;;7.92;100.00;95773.66;5038770;28;20209;-70
2023/04/20 16:38:09;;;;;;;1.77;1.37;;;;;;;7.92;100.00;95769.22;5037776;28;20213;-69
2023/04/20 16:40:36;;;;;;;1.50;0.90;;;;;;;7.94;100.00;95766.44;5039352;28;20336;-68
2023/04/20 16:43:02;;;;;;;1.37;1.30;;;;;;;7.99;100.00;95764.09;5038364;28;20217;-71
2023/04/20 16:45:32;;;;;;;2.03;1.83;;;;;;;7.96;100.00;95767.09;5038016;28;20208;-70
2023/04/20 16:47:59;;;;;;;2.03;1.33;;;;;;;7.75;100.00;95769.50;5038559;28;20209;-70
2023/04/20 16:50:26;;;;;;;1.83;1.30;;;;;;;7.92;100.00;95784.16;5038592;28;20198;-70
2023/04/20 16:52:53;;;;;;;2.67;1.90;;;;;;;7.93;100.00;95788.44;5038389;28;20217;-69
2023/04/20 16:55:19;;;;;;;0.73;0.73;;;;;;;7.92;100.00;95782.34;5039087;28;20215;-69
2023/04/20 16:57:46;;;;;;;1.60;1.10;;;;;;;7.74;100.00;95774.91;5039050;28;20193;-70
2023/04/20 17:00:14;;;;;;;2.27;1.23;;;;;;;7.69;100.00;95772.78;5037377;28;20236;-71
2023/04/20 17:02:41;;;;;;;0.80;0.80;;;;;;;7.82;100.00;95782.75;5039302;28;20225;-71
2023/04/20 17:05:08;;;;;;;2.57;1.97;;;;;;;7.85;100.00;95779.78;5037841;28;20220;-69
2023/04/20 17:07:36;;;;;;;1.00;1.00;;;;;;;7.80;100.00;95785.50;5038499;28;20685;-69
2023/04/20 17:10:03;;;;;;;1.97;1.70;;;;;;;7.66;100.00;95791.50;5037506;28;20544;-70
2023/04/20 17:12:30;;;;;;;2.67;1.30;;;;;;;7.87;100.00;95808.28;5038945;28;20317;-71
2023/04/20 17:14:56;;;;;;;2.00;1.63;;;;;;;7.78;100.00;95816.34;5038610;28;20205;-71
2023/04/20 17:17:23;;;;;;;1.97;1.63;;;;;;;7.91;100.00;95827.13;5037412;28;20214;-69
2023/04/20 17:19:51;;;;;;;4.93;2.83;;;;;;;7.97;100.00;95829.06;5037983;28;20260;-69
2023/04/20 17:22:18;;;;;;;7.17;2.27;;;;;;;7.92;100.00;95834.81;5038122;28;20228;-69
2023/04/20 17:24:45;;;;;;;6.23;2.73;;;;;;;7.99;100.00;95835.78;5036719;28;20198;-71
2023/04/20 17:27:11;;;;;;;2.23;1.10;;;;;;;7.98;100.00;95830.69;5037808;28;20201;-71
2023/04/20 17:29:38;;;;;;;2.73;2.53;;;;;;;8.01;100.00;95831.16;5037483;28;20208;-72
2023/04/20 17:32:05;;;;;;;1.97;1.87;;;;;;;8.02;100.00;95848.53;5037154;28;20292;-69
2023/04/20 17:34:31;;;;;;;3.10;1.37;;;;;;;8.10;100.00;95852.94;5036799;28;20239;-69
2023/04/20 17:36:59;;;;;;;4.03;2.03;;;;;;;8.07;100.00;95854.09;5038484;28;20204;-71
2023/04/20 17:39:26;;;;;;;1.57;1.47;;;;;;;8.03;100.00;95859.84;5035964;28;20752;-71
2023/04/20 17:41:52;;;;;;;3.90;1.93;;;;;;;8.00;100.00;95860.19;5036073;28;20225;-71
2023/04/20 17:44:19;;;;;;;2.03;1.40;;;;;;;8.04;100.00;95866.75;5036681;28;20244;-71
2023/04/20 17:46:45;;;;;;;2.30;2.07;;;;;;;7.93;100.00;95867.94;5036697;28;20685;-71
2023/04/20 17:49:12;;;;;;;1.60;1.17;;;;;;;7.90;100.00;95875.31;5036016;28;20213;-69
2023/04/20 17:51:38;;;;;;;1.97;0.87;;;;;;;7.96;100.00;95872.03;5036830;28;20205;-71
2023/04/20 17:54:06;;;;;;;1.30;1.20;;;;;;;7.89;100.00;95868.44;5036671;28;20515;-71
2023/04/20 17:56:33;;;;;;;1.80;1.47;;;;;;;7.91;100.00;95871.72;5033611;28;20205;-71
2023/04/20 17:58:59;;;;;;;1.00;1.00;;;;;;;7.94;100.00;95876.59;5035703;28;20220;-69
2023/04/20 18:01:26;;;;;;;3.33;1.77;;;;;;;7.90;100.00;95876.16;5035587;28;20221;-71
2023/04/20 18:03:53;;;;;;;1.03;1.03;;;;;;;7.83;100.00;95877.00;5037304;28;20227;-70
2023/04/20 18:06:19;;;;;;;2.30;1.80;;;;;;;7.83;100.00;95882.25;5037130;28;20793;-70
2023/04/20 18:08:46;;;;;;;3.33;1.60;;;;;;;7.73;100.00;95889.47;5037477;28;20197;-70
2023/04/20 18:11:14;;;;;;;6.10;3.30;;;;;;;7.72;100.00;95887.84;5036747;28;20205;-70
2023/04/20 18:13:40;;;;;;;3.67;3.23;;;;;;;7.78;100.00;95887.16;5036091;28;20236;-71
2023/04/20 18:16:07;;;;;;;7.33;4.77;;;;;;;7.80;100.00;95895.66;5036410;28;20729;-72
2023/04/20 18:18:34;;;;;;;6.10;5.40;;;;;;;7.87;100.00;95896.66;5036014;28;20201;-71
2023/04/20 18:21:02;;;;;;;1.80;1.70;;;;;;;7.83;100.00;95903.22;5036099;28;20567;-72
2023/04/20 18:23:29;;;;;;;2.73;2.20;;;;;;;7.82;100.00;95904.19;5035845;28;20687;-72
2023/04/20 18:25:56;;;;;;;1.83;1.73;;;;;;;7.76;100.00;95910.09;5037294;28;20237;-71
2023/04/20 18:28:24;;;;;;;3.13;1.50;;;;;;;7.77;100.00;95910.94;5035687;28;20205;-71
2023/04/20 18:30:50;;;;;;;1.57;1.00;;;;;;;7.69;100.00;95913.56;5035732;28;20193;-72
2023/04/20 18:33:17;;;;;;;1.53;1.43;;;;;;;7.73;100.00;95904.41;5036013;28;20236;-70
2023/04/20 18:35:44;;;;;;;4.03;2.00;;;;;;;7.74;100.00;95901.59;5036535;28;20918;-70
2023/04/20 18:38:11;;;;;;;1.77;1.67;;;;;;;7.69;100.00;95897.81;5035483;28;20217;-70
2023/04/20 18:40:37;;;;;;;3.70;2.70;;;;;;;7.60;100.00;95904.06;5035406;28;20700;-71
2023/04/20 18:43:04;;;;;;;2.37;2.20;;;;;;;7.40;100.00;95908.88;5032258;28;20228;-69
2023/04/20 18:45:32;;;;;;;1.13;0.97;;;;;;;7.51;100.00;95905.06;5033572;28;20221;-71
2023/04/20 18:47:58;;;;;;;2.23;2.03;;;;;;;7.54;100.00;95905.56;5035228;28;20212;-71
2023/04/20 18:50:25;;;;;;;1.63;1.53;;;;;;;7.54;100.00;95913.44;5035278;28;20964;-70
2023/04/20 18:52:51;;;;;;;1.23;1.20;;;;;;;7.42;100.00;95914.78;5034680;28;21004;-69
2023/04/20 18:55:18;;;;;;;2.10;1.83;;;;;;;7.51;100.00;95912.94;5034903;28;20201;-71
2023/04/20 18:57:44;;;;;;;1.93;1.83;;;;;;;7.51;100.00;95923.44;5033920;28;20201;-71
2023/04/20 19:00:11;;;;;;;1.60;1.50;;;;;;;7.46;100.00;95925.75;5035004;28;20209;-69
2023/04/20 19:02:39;;;;;;;4.00;1.80;;;;;;;7.46;100.00;95925.75;5035572;28;20221;-71
2023/04/20 19:05:07;;;;;;;2.47;2.23;;;;;;;7.48;100.00;95934.25;5034738;28;20217;-70
2023/04/20 19:07:34;;;;;;;2.13;1.90;;;;;;;7.53;100.00;95940.63;5034766;28;21235;-69
2023/04/20 19:10:00;;;;;;;4.33;2.70;;;;;;;7.48;100.00;95937.69;5034716;28;20604;-71
2023/04/20 19:12:27;;;;;;;1.77;1.67;;;;;;;7.52;100.00;95940.81;5034774;28;20716;-69